Time;durP1;ratioP1;P1;durP2;ratioP2;P2;SDS_P1;SDS_P2;PMS_P1;PMS_P2;Temp;Humidity;BMP_temperature;BMP_pressure;BME280_temperature;BME280_humidity;BME280_pressure;Samples;Min_cycle;Max_cycle;Signal;HPM_P1;HPM_P2
2022/03/08 00:02:26;;;;;;;2.40;1.33;;;;;;;9.20;81.48;99688.94;5035282;28;20207;-74
2022/03/08 00:04:53;;;;;;;4.83;2.67;;;;;;;9.11;82.14;99694.28;5046964;28;20577;-74
2022/03/08 00:07:20;;;;;;;2.67;1.43;;;;;;;8.78;82.30;99668.91;5048316;28;20045;-76
2022/03/08 00:09:47;;;;;;;1.60;1.07;;;;;;;8.42;82.00;99598.81;5043986;28;20053;-73
2022/03/08 00:12:14;;;;;;;1.30;0.97;;;;;;;9.35;81.85;99713.84;5043456;28;20411;-73
2022/03/08 00:14:40;;;;;;;17.13;16.33;;;;;;;9.34;82.08;99716.94;5045057;28;20081;-73
2022/03/08 00:17:13;;;;;;;17.07;15.87;;;;;;;9.04;81.59;99657.59;5047207;28;20115;-73
2022/03/08 00:19:40;;;;;;;17.97;16.83;;;;;;;9.32;81.74;99688.53;5041723;28;20073;-74
2022/03/08 00:22:06;;;;;;;15.20;14.23;;;;;;;9.52;80.95;99634.53;5026274;28;20076;-72
2022/03/08 00:24:34;;;;;;;14.43;13.53;;;;;;;9.38;80.58;99645.56;5051014;28;20083;-71
2022/03/08 00:27:00;;;;;;;8.60;7.80;;;;;;;10.08;80.33;99720.31;5050104;28;20060;-70
2022/03/08 00:29:27;;;;;;;1.63;0.93;;;;;;;10.08;80.48;99731.47;5051571;28;20076;-70
2022/03/08 00:31:54;;;;;;;2.67;1.60;;;;;;;10.27;80.15;99749.13;5052349;28;20037;-70
2022/03/08 00:34:21;;;;;;;12.43;1.77;;;;;;;10.10;79.96;99699.34;5048191;28;20045;-70
2022/03/08 00:36:48;;;;;;;2.27;1.00;;;;;;;10.48;80.03;99758.06;5049549;28;20519;-70
2022/03/08 00:39:15;;;;;;;5.00;2.07;;;;;;;10.74;79.17;99771.69;5049354;28;20061;-70
2022/03/08 00:41:43;;;;;;;2.87;1.53;;;;;;;10.94;78.98;99787.28;5040128;28;20118;-72
2022/03/08 00:44:10;;;;;;;3.23;1.70;;;;;;;10.78;78.71;99742.03;5051967;28;20099;-72
2022/03/08 00:46:37;;;;;;;5.37;1.47;;;;;;;11.19;78.86;99781.34;5051911;28;20057;-73
2022/03/08 00:49:04;;;;;;;6.07;1.30;;;;;;;11.38;78.53;99784.94;5051343;28;20136;-72
2022/03/08 00:51:31;;;;;;;4.37;1.47;;;;;;;11.48;78.04;99792.31;5053089;28;20578;-73
2022/03/08 00:53:59;;;;;;;3.87;0.90;;;;;;;11.25;78.07;99754.97;5048905;28;20149;-72
2022/03/08 00:56:26;;;;;;;1.93;0.93;;;;;;;11.56;78.11;99804.78;5035225;28;20081;-72
2022/03/08 00:58:53;;;;;;;4.47;1.17;;;;;;;11.73;77.96;99816.25;5051977;28;20052;-72
2022/03/08 01:01:20;;;;;;;7.47;1.10;;;;;;;11.72;77.76;99805.34;5046570;28;20080;-75
2022/03/08 01:03:47;;;;;;;3.00;1.13;;;;;;;11.88;77.28;99820.75;5050745;28;20064;-73
2022/03/08 01:06:14;;;;;;;2.47;0.80;;;;;;;11.78;77.25;99784.53;5048412;28;20143;-72
2022/03/08 01:08:41;;;;;;;4.67;1.03;;;;;;;12.06;76.94;99814.25;5051951;28;20052;-70
2022/03/08 01:11:08;;;;;;;1.93;0.93;;;;;;;12.07;76.87;99801.94;5049138;28;20041;-70
2022/03/08 01:13:35;;;;;;;4.87;1.13;;;;;;;12.09;76.82;99796.84;5057938;28;20076;-72
2022/03/08 01:16:02;;;;;;;5.93;1.40;;;;;;;11.92;76.66;99754.66;5063246;28;20064;-72
2022/03/08 01:18:30;;;;;;;1.33;0.50;;;;;;;12.27;76.73;99797.06;5075911;28;20088;-70
2022/03/08 01:20:58;;;;;;;3.17;0.80;;;;;;;12.14;76.64;99814.69;5071990;28;20420;-74
2022/03/08 01:23:25;;;;;;;7.23;0.67;;;;;;;12.04;77.12;99819.34;5070716;28;20041;-69
2022/03/08 01:25:51;;;;;;;6.13;1.30;;;;;;;11.61;77.08;99843.84;5057011;28;20048;-72
2022/03/08 01:28:18;;;;;;;3.30;0.63;;;;;;;11.48;77.31;99851.03;5068836;28;20033;-71
2022/03/08 01:30:46;;;;;;;1.67;0.70;;;;;;;11.39;76.92;99864.88;5056151;28;20033;-70
2022/03/08 01:33:13;;;;;;;1.23;0.50;;;;;;;11.39;77.03;99855.66;5059044;28;20026;-71
2022/03/08 01:35:40;;;;;;;1.63;0.30;;;;;;;11.04;77.12;99815.94;5058761;28;20042;-70
2022/03/08 01:38:06;;;;;;;5.83;1.90;;;;;;;11.18;77.25;99857.09;5059535;28;20056;-72
2022/03/08 01:40:33;;;;;;;8.97;4.17;;;;;;;11.20;77.37;99863.22;5053341;28;20041;-72
2022/03/08 01:43:01;;;;;;;5.40;0.90;;;;;;;11.22;77.50;99847.81;5044488;28;20049;-72
2022/03/08 01:45:28;;;;;;;6.90;1.00;;;;;;;11.19;77.86;99840.03;5035371;28;20458;-72
2022/03/08 01:47:55;;;;;;;6.50;1.00;;;;;;;11.25;78.15;99863.16;5041097;28;20045;-72
2022/03/08 01:50:22;;;;;;;4.20;0.93;;;;;;;11.23;78.21;99854.22;5035401;28;20099;-75
2022/03/08 01:52:50;;;;;;;6.00;1.30;;;;;;;11.04;78.28;99834.66;5048722;28;20094;-75
2022/03/08 01:55:17;;;;;;;6.37;1.33;;;;;;;11.24;78.27;99856.72;5052554;28;20126;-74
2022/03/08 01:57:47;;;;;;;8.70;1.37;;;;;;;10.95;78.44;99814.13;5052502;28;20056;-72
2022/03/08 02:00:18;;;;;;;2.70;0.80;;;;;;;11.05;78.22;99836.34;5052143;28;20045;-72
2022/03/08 02:02:45;;;;;;;8.43;1.23;;;;;;;10.94;78.37;99818.88;5051229;28;20500;-73
2022/03/08 02:05:12;;;;;;;4.23;1.47;;;;;;;10.98;78.05;99833.91;5052266;28;20084;-73
2022/03/08 02:07:39;;;;;;;9.93;1.17;;;;;;;11.15;77.97;99867.75;5052111;28;20132;-71
2022/03/08 02:10:07;;;;;;;14.77;1.87;;;;;;;11.30;77.89;99869.47;5052537;28;20111;-70
2022/03/08 02:12:35;;;;;;;5.90;1.67;;;;;;;11.07;78.22;99834.03;5051878;28;20077;-70
2022/03/08 02:15:16;;;;;;;3.80;1.20;;;;;;;11.02;78.65;99834.97;5049288;28;20057;-70
2022/03/08 02:17:44;;;;;;;2.57;1.07;;;;;;;11.33;78.69;99888.44;5032536;28;20049;-70
2022/03/08 02:20:12;;;;;;;6.80;1.43;;;;;;;11.05;78.82;99831.56;5048261;28;20592;-73
2022/03/08 02:22:40;;;;;;;11.73;1.40;;;;;;;10.86;78.72;99806.41;5051130;28;20052;-69
2022/03/08 02:25:08;;;;;;;7.37;2.03;;;;;;;11.35;78.84;99890.94;5021347;28;20072;-72
2022/03/08 02:27:42;;;;;;;10.37;1.20;;;;;;;11.35;78.82;99875.00;5034729;28;20099;-70
2022/03/08 02:30:11;;;;;;;13.03;2.13;;;;;;;11.58;78.72;99904.00;5048617;28;20044;-70
2022/03/08 02:32:38;;;;;;;11.80;1.63;;;;;;;11.70;78.30;99905.53;5046448;28;20523;-70
2022/03/08 02:35:11;;;;;;;8.10;1.20;;;;;;;11.71;78.27;99898.78;5046694;28;20072;-70
2022/03/08 02:37:38;;;;;;;16.00;1.60;;;;;;;11.71;78.24;99898.78;5048633;28;20053;-69
2022/03/08 02:40:11;;;;;;;9.13;2.00;;;;;;;11.69;78.11;99895.44;5042433;28;20558;-71
2022/03/08 02:42:39;;;;;;;8.53;1.23;;;;;;;11.72;77.84;99911.63;5025672;28;20045;-69
2022/03/08 02:45:10;;;;;;;21.50;2.57;;;;;;;11.63;77.88;99903.94;5020931;28;20072;-70
2022/03/08 02:47:37;;;;;;;12.60;1.60;;;;;;;11.54;77.93;99913.31;5049078;28;20057;-69
2022/03/08 02:50:07;;;;;;;14.60;1.30;;;;;;;11.59;77.80;99918.84;5048742;28;20084;-69
2022/03/08 02:52:35;;;;;;;12.48;1.90;;;;;;;11.41;77.72;99902.88;5049978;28;20052;-70
2022/03/08 02:55:03;;;;;;;8.23;1.37;;;;;;;11.50;77.81;99918.69;5047269;28;20045;-69
2022/03/08 02:57:30;;;;;;;9.13;1.43;;;;;;;11.59;77.72;99933.66;5049951;28;20088;-69
2022/03/08 02:59:57;;;;;;;9.80;1.23;;;;;;;11.61;77.46;99931.34;5033395;28;20140;-70
2022/03/08 03:02:25;;;;;;;7.53;1.70;;;;;;;11.36;77.28;99882.25;5051393;28;20480;-69
2022/03/08 03:04:56;;;;;;;5.27;1.17;;;;;;;11.52;77.19;99912.75;5035149;28;20045;-69
2022/03/08 03:07:24;;;;;;;8.60;1.70;;;;;;;11.67;77.46;99936.91;5053125;28;20049;-69
2022/03/08 03:09:51;;;;;;;6.23;1.53;;;;;;;11.71;77.25;99926.75;5047592;28;20049;-70
2022/03/08 03:12:18;;;;;;;8.90;1.23;;;;;;;11.79;77.08;99931.66;5044545;28;20106;-70
2022/03/08 03:14:45;;;;;;;6.77;1.33;;;;;;;11.78;76.90;99935.59;5049746;28;20044;-70
2022/03/08 03:17:12;;;;;;;7.77;1.83;;;;;;;11.70;76.97;99931.53;5051987;28;20076;-69
2022/03/08 03:19:39;;;;;;;3.00;1.50;;;;;;;11.38;77.06;99884.72;5048049;28;20081;-69
2022/03/08 03:22:06;;;;;;;7.63;1.70;;;;;;;11.76;77.06;99944.31;5045226;28;20081;-70
2022/03/08 03:24:33;;;;;;;3.40;1.20;;;;;;;11.48;76.79;99898.56;5042165;28;20067;-69
2022/03/08 03:27:00;;;;;;;13.50;1.73;;;;;;;11.74;76.99;99948.53;5051814;28;20079;-70
2022/03/08 03:29:27;;;;;;;7.67;1.17;;;;;;;11.73;77.03;99944.06;5049974;28;20076;-69
2022/03/08 03:31:54;;;;;;;8.17;0.90;;;;;;;11.67;76.99;99934.09;5051498;28;20049;-70
2022/03/08 03:34:20;;;;;;;7.67;1.53;;;;;;;11.49;76.99;99922.63;5050105;28;20076;-69
2022/03/08 03:36:47;;;;;;;9.43;1.93;;;;;;;11.66;76.96;99954.78;5048802;28;20084;-71
2022/03/08 03:39:14;;;;;;;9.30;1.53;;;;;;;11.66;76.60;99957.59;5048787;28;20149;-70
2022/03/08 03:41:41;;;;;;;6.63;1.73;;;;;;;11.67;76.73;99965.69;5047331;28;20077;-73
2022/03/08 03:44:08;;;;;;;13.57;2.60;;;;;;;11.69;76.63;99957.84;5048053;28;20507;-74
2022/03/08 03:46:35;;;;;;;8.17;1.87;;;;;;;11.72;76.45;99959.19;5049447;28;20056;-74
2022/03/08 03:49:02;;;;;;;12.97;1.63;;;;;;;11.79;76.71;99965.22;5050443;28;20044;-72
2022/03/08 03:51:29;;;;;;;8.37;2.00;;;;;;;11.85;76.64;99976.06;5054271;28;20041;-72
2022/03/08 03:53:56;;;;;;;11.77;1.63;;;;;;;11.91;76.68;99976.00;5049588;28;20056;-72
2022/03/08 03:56:23;;;;;;;15.50;2.07;;;;;;;11.92;76.53;99978.47;5060598;28;20048;-70
2022/03/08 03:58:50;;;;;;;12.23;3.10;;;;;;;11.99;76.43;99992.91;5070187;28;20054;-70
2022/03/08 04:01:17;;;;;;;10.30;1.93;;;;;;;11.99;76.21;99992.91;5060230;28;20041;-70
2022/03/08 04:03:44;;;;;;;8.73;1.67;;;;;;;11.95;76.19;99988.25;5047037;28;20092;-69
2022/03/08 04:06:11;;;;;;;6.23;1.87;;;;;;;11.94;76.02;99995.81;5048249;28;20048;-69
2022/03/08 04:08:37;;;;;;;7.50;1.77;;;;;;;11.82;76.10;99995.38;5048438;28;20503;-70
2022/03/08 04:11:09;;;;;;;17.23;2.47;;;;;;;11.84;75.80;99996.78;5052225;28;20056;-70
2022/03/08 04:13:36;;;;;;;7.30;1.33;;;;;;;11.84;75.81;100004.34;5034548;28;20045;-70
2022/03/08 04:16:03;;;;;;;7.70;2.10;;;;;;;11.52;76.04;99957.50;5041696;28;20072;-69
2022/03/08 04:18:31;;;;;;;21.10;1.60;;;;;;;11.42;76.01;99952.91;5042240;28;20053;-71
2022/03/08 04:20:58;;;;;;;9.37;1.40;;;;;;;11.65;76.05;99990.31;5048856;28;20119;-71
2022/03/08 04:23:25;;;;;;;6.67;2.17;;;;;;;11.79;76.05;100016.41;5044276;28;20099;-69
2022/03/08 04:25:51;;;;;;;10.13;2.13;;;;;;;11.77;76.44;100017.84;5039730;28;20076;-70
2022/03/08 04:28:18;;;;;;;13.23;1.70;;;;;;;11.75;76.46;100009.75;5035297;28;20577;-69
2022/03/08 04:30:45;;;;;;;6.13;1.40;;;;;;;11.84;76.45;100033.16;5050142;28;20092;-70
2022/03/08 04:33:12;;;;;;;7.13;1.33;;;;;;;11.93;76.76;100029.66;5049823;28;20084;-69
2022/03/08 04:35:39;;;;;;;19.07;2.07;;;;;;;12.02;76.58;100027.88;5047274;28;20073;-68
2022/03/08 04:38:06;;;;;;;10.70;1.40;;;;;;;11.73;76.51;99972.88;5049034;28;20068;-70
2022/03/08 04:40:33;;;;;;;7.30;1.30;;;;;;;12.08;76.35;100023.84;5045512;28;20049;-70
2022/03/08 04:43:00;;;;;;;10.43;2.17;;;;;;;12.18;76.57;100048.06;5043979;28;20080;-69
2022/03/08 04:45:27;;;;;;;9.17;1.27;;;;;;;12.08;76.45;100018.25;5040486;28;20080;-70
2022/03/08 04:47:54;;;;;;;4.77;1.40;;;;;;;11.86;76.29;99999.28;5047248;28;20080;-70
2022/03/08 04:50:20;;;;;;;12.23;2.00;;;;;;;12.18;76.28;100048.06;5051089;28;20073;-68
2022/03/08 04:52:49;;;;;;;6.23;1.37;;;;;;;12.07;76.16;100028.63;5047790;28;20104;-71
2022/03/08 04:55:17;;;;;;;8.73;3.63;;;;;;;12.19;75.88;100044.13;5041046;28;20048;-70
2022/03/08 04:57:44;;;;;;;6.70;1.07;;;;;;;12.13;75.89;100042.53;5050648;28;20049;-70
2022/03/08 05:00:12;;;;;;;8.10;1.30;;;;;;;12.15;75.80;100048.66;5048599;28;20072;-71
2022/03/08 05:02:44;;;;;;;13.27;2.10;;;;;;;12.07;76.08;100042.63;5049542;28;20037;-71
2022/03/08 05:05:13;;;;;;;13.70;1.70;;;;;;;12.06;76.01;100054.94;5049965;28;20053;-70
2022/03/08 05:07:41;;;;;;;10.63;2.10;;;;;;;12.00;75.91;100055.31;5048736;28;20081;-70
2022/03/08 05:10:10;;;;;;;18.60;1.63;;;;;;;11.97;76.07;100051.16;5044879;28;20476;-70
2022/03/08 05:12:40;;;;;;;5.67;1.73;;;;;;;12.00;76.06;100053.38;5041079;28;20056;-71
2022/03/08 05:15:08;;;;;;;10.87;2.30;;;;;;;12.13;76.02;100060.16;5039364;28;20049;-73
2022/03/08 05:17:35;;;;;;;7.43;1.57;;;;;;;12.09;76.20;100068.31;5052682;28;20130;-70
2022/03/08 05:20:06;;;;;;;7.20;1.47;;;;;;;12.07;76.14;100065.00;5034919;28;20114;-69
2022/03/08 05:22:33;;;;;;;7.87;1.83;;;;;;;12.03;76.04;100055.56;5036744;28;20081;-69
2022/03/08 05:25:00;;;;;;;6.40;1.70;;;;;;;11.76;75.92;100013.38;5047078;28;20561;-69
2022/03/08 05:27:27;;;;;;;16.13;2.13;;;;;;;11.96;75.82;100040.25;5043918;28;20412;-68
2022/03/08 05:29:54;;;;;;;10.97;1.87;;;;;;;11.92;75.92;100048.44;5039422;28;20076;-71
2022/03/08 05:32:21;;;;;;;11.60;1.63;;;;;;;12.01;76.16;100060.63;5051920;28;20041;-71
2022/03/08 05:34:48;;;;;;;11.80;2.43;;;;;;;12.03;75.98;100063.09;5050590;28;20076;-70
2022/03/08 05:37:14;;;;;;;11.83;1.90;;;;;;;12.03;76.37;100063.09;5051486;28;20500;-70
2022/03/08 05:39:41;;;;;;;11.60;1.60;;;;;;;11.92;76.32;100042.84;5049864;28;20494;-71
2022/03/08 05:42:08;;;;;;;9.70;1.50;;;;;;;11.77;76.38;100015.88;5043537;28;20084;-69
2022/03/08 05:44:36;;;;;;;17.03;2.13;;;;;;;12.12;76.55;100058.50;5049487;28;20080;-71
2022/03/08 05:47:03;;;;;;;18.83;2.27;;;;;;;11.59;76.50;99970.00;5048466;28;20049;-68
2022/03/08 05:49:31;;;;;;;13.03;2.07;;;;;;;12.21;76.39;100053.06;5037196;28;20076;-69
2022/03/08 05:51:58;;;;;;;9.73;2.20;;;;;;;12.23;76.72;100067.56;5044169;28;20123;-70
2022/03/08 05:54:24;;;;;;;12.80;1.73;;;;;;;12.20;76.82;100062.56;5050300;28;20072;-70
2022/03/08 05:56:51;;;;;;;9.43;1.80;;;;;;;11.82;76.76;100018.59;5051440;28;20542;-70
2022/03/08 05:59:18;;;;;;;19.20;2.93;;;;;;;12.11;76.63;100073.63;5048685;28;20499;-69
2022/03/08 06:01:45;;;;;;;6.83;1.73;;;;;;;11.88;77.11;100080.94;5046400;28;20087;-69
2022/03/08 06:04:12;;;;;;;10.37;1.60;;;;;;;11.84;77.25;100082.69;5039712;28;20076;-71
2022/03/08 06:06:39;;;;;;;13.17;1.30;;;;;;;11.30;77.16;100000.84;5040567;28;20115;-71
2022/03/08 06:09:06;;;;;;;4.93;1.20;;;;;;;11.76;77.42;100100.09;5044131;28;20049;-72
2022/03/08 06:11:33;;;;;;;6.67;1.37;;;;;;;11.65;77.62;100107.78;5045313;28;20077;-72
2022/03/08 06:14:00;;;;;;;14.10;2.00;;;;;;;11.71;77.28;100105.75;5043754;28;20079;-71
2022/03/08 06:16:26;;;;;;;16.17;2.50;;;;;;;11.76;77.43;100108.47;5049109;28;20067;-72
2022/03/08 06:18:56;;;;;;;11.20;2.77;;;;;;;11.59;77.14;100090.25;5040587;28;20045;-71
2022/03/08 06:21:23;;;;;;;12.33;1.17;;;;;;;11.83;77.38;100125.78;5042475;28;20045;-71
2022/03/08 06:23:50;;;;;;;10.20;1.97;;;;;;;11.75;77.29;100126.41;5042938;28;20454;-73
2022/03/08 06:26:17;;;;;;;4.33;2.47;;;;;;;11.48;77.99;100101.84;5052525;28;20500;-73
2022/03/08 06:28:44;;;;;;;6.20;1.70;;;;;;;11.33;78.15;100108.47;5040861;28;20124;-73
2022/03/08 06:31:11;;;;;;;3.40;0.80;;;;;;;11.20;78.12;100118.38;5045585;28;20509;-73
2022/03/08 06:33:38;;;;;;;11.33;4.27;;;;;;;11.21;78.15;100142.38;5043161;28;20048;-72
2022/03/08 06:36:05;;;;;;;7.80;1.50;;;;;;;10.78;77.97;100080.78;5034730;28;20085;-72
2022/03/08 06:38:32;;;;;;;7.00;0.93;;;;;;;11.08;78.03;100132.75;5075025;28;20078;-72
2022/03/08 06:41:00;;;;;;;11.17;1.53;;;;;;;11.06;78.11;100135.00;5069576;28;20052;-72
2022/03/08 06:43:26;;;;;;;5.47;0.60;;;;;;;11.07;78.25;100138.63;5053222;28;20060;-72
2022/03/08 06:45:54;;;;;;;12.70;1.73;;;;;;;11.10;78.66;100150.03;5054308;28;20076;-73
2022/03/08 06:48:21;;;;;;;7.97;1.23;;;;;;;10.98;78.29;100107.69;5040161;28;20048;-74
2022/03/08 06:50:51;;;;;;;13.57;1.50;;;;;;;11.44;77.87;100157.53;5053267;28;20111;-71
2022/03/08 06:53:18;;;;;;;4.53;1.00;;;;;;;10.96;77.36;100109.94;5036486;28;20115;-74
2022/03/08 06:55:45;;;;;;;2.90;1.40;;;;;;;10.89;77.74;100201.63;5045127;28;20053;-69
2022/03/08 06:58:12;;;;;;;3.17;0.70;;;;;;;10.73;78.45;100214.03;5051557;28;20561;-69
2022/03/08 07:00:39;;;;;;;4.93;1.17;;;;;;;10.52;78.63;100197.44;5053415;28;20466;-72
2022/03/08 07:03:06;;;;;;;6.57;1.20;;;;;;;10.52;79.47;100228.13;5050316;28;20119;-70
2022/03/08 07:05:33;;;;;;;5.00;1.07;;;;;;;10.55;79.48;100213.59;5045692;28;20049;-73
2022/03/08 07:08:00;;;;;;;9.93;1.30;;;;;;;10.27;79.46;100164.09;5045435;28;20077;-71
2022/03/08 07:10:27;;;;;;;23.10;21.17;;;;;;;10.55;79.52;100219.19;5055408;28;20123;-72
2022/03/08 07:12:54;;;;;;;9.97;2.07;;;;;;;10.65;79.57;100213.53;5052575;28;20045;-72
2022/03/08 07:15:21;;;;;;;7.97;2.40;;;;;;;10.72;79.47;100201.22;5047673;28;20138;-73
2022/03/08 07:17:48;;;;;;;35.23;32.37;;;;;;;10.50;79.47;100146.66;5052720;28;20087;-72
2022/03/08 07:20:15;;;;;;;37.13;33.90;;;;;;;10.83;79.54;100191.63;5042392;28;20049;-73
2022/03/08 07:22:42;;;;;;;7.83;2.47;;;;;;;10.89;79.88;100194.09;5052976;28;20052;-71
2022/03/08 07:25:10;;;;;;;6.93;2.00;;;;;;;10.93;79.84;100204.69;5045161;28;20045;-71
2022/03/08 07:27:38;;;;;;;5.53;1.50;;;;;;;10.95;79.67;100214.44;5043218;28;20053;-72
2022/03/08 07:30:07;;;;;;;11.03;1.83;;;;;;;10.94;79.73;100214.72;5035688;28;20167;-72
2022/03/08 07:32:34;;;;;;;6.30;1.67;;;;;;;10.93;79.57;100219.47;5052975;28;20048;-71
2022/03/08 07:35:02;;;;;;;9.03;1.57;;;;;;;11.02;79.95;100233.69;5052786;28;20187;-71
2022/03/08 07:37:34;;;;;;;4.50;1.40;;;;;;;11.05;80.12;100239.53;5048636;28;20053;-73
2022/03/08 07:40:01;;;;;;;4.83;1.40;;;;;;;11.07;80.37;100248.44;5051941;28;20104;-71
2022/03/08 07:42:28;;;;;;;2.23;1.60;;;;;;;10.83;80.54;100225.97;5052598;28;20081;-72
2022/03/08 07:44:54;;;;;;;1.47;1.00;;;;;;;11.00;80.53;100252.69;5049158;28;20048;-73
2022/03/08 07:47:22;;;;;;;4.90;1.33;;;;;;;11.01;80.22;100258.00;5052049;28;20053;-71
2022/03/08 07:49:49;;;;;;;2.07;0.90;;;;;;;11.07;80.36;100248.44;5049024;28;20464;-72
2022/03/08 07:52:18;;;;;;;1.05;0.68;;;;;;;11.14;80.36;100256.47;5048046;28;20270;-72
2022/03/08 07:54:46;;;;;;;2.00;0.70;;;;;;;11.19;80.37;100252.81;5048594;28;20049;-72
2022/03/08 07:57:13;;;;;;;0.97;0.63;;;;;;;11.24;80.03;100261.16;5053135;28;20060;-72
2022/03/08 07:59:40;;;;;;;0.73;0.40;;;;;;;10.72;79.66;100165.75;5053915;28;20150;-74
2022/03/08 08:02:08;;;;;;;0.87;0.50;;;;;;;11.29;80.01;100244.34;5044701;28;20120;-71
2022/03/08 08:04:35;;;;;;;1.03;0.50;;;;;;;11.06;80.19;100207.66;5053349;28;20049;-72
2022/03/08 08:07:02;;;;;;;1.20;0.53;;;;;;;11.17;80.04;100213.16;5037475;28;20531;-74
2022/03/08 08:09:29;;;;;;;3.50;0.67;;;;;;;11.44;79.98;100263.78;5049024;28;20089;-73
2022/03/08 08:11:56;;;;;;;4.77;1.10;;;;;;;11.52;79.93;100263.16;5049163;28;20049;-74
2022/03/08 08:14:22;;;;;;;2.93;0.80;;;;;;;11.47;80.09;100252.00;5050577;28;20041;-74
2022/03/08 08:16:50;;;;;;;1.70;0.43;;;;;;;11.19;79.89;100196.94;5051896;28;20487;-75
2022/03/08 08:19:17;;;;;;;1.30;0.47;;;;;;;11.62;79.84;100270.59;5048572;28;20500;-73
2022/03/08 08:21:44;;;;;;;1.73;0.70;;;;;;;11.26;79.92;100217.81;5048143;28;20562;-74
2022/03/08 08:24:11;;;;;;;3.97;1.00;;;;;;;11.37;80.03;100238.94;5052374;28;20091;-73
2022/03/08 08:26:38;;;;;;;1.43;0.70;;;;;;;11.61;80.10;100280.13;5051814;28;20085;-74
2022/03/08 08:29:05;;;;;;;2.47;1.10;;;;;;;11.64;79.93;100282.34;5047011;28;20076;-75
2022/03/08 08:31:32;;;;;;;2.73;0.83;;;;;;;11.58;80.06;100275.13;5053879;28;20053;-74
2022/03/08 08:33:59;;;;;;;2.43;0.83;;;;;;;11.35;80.01;100243.16;5056884;28;20351;-73
2022/03/08 08:36:26;;;;;;;2.67;0.53;;;;;;;11.70;80.28;100291.53;5044738;28;20472;-75
2022/03/08 08:38:53;;;;;;;13.43;1.20;;;;;;;11.40;80.08;100234.75;5038871;28;20110;-75
2022/03/08 08:41:20;;;;;;;0.97;0.80;;;;;;;11.77;80.22;100289.22;5051181;28;20106;-74
2022/03/08 08:43:47;;;;;;;1.90;0.77;;;;;;;11.85;80.49;100274.59;5043502;28;20496;-73
2022/03/08 08:46:14;;;;;;;2.70;1.27;;;;;;;12.37;80.34;100298.06;5047838;28;20064;-75
2022/03/08 08:48:41;;;;;;;0.93;0.70;;;;;;;12.41;80.34;100243.16;5052352;28;20136;-75
2022/03/08 08:51:08;;;;;;;7.10;1.10;;;;;;;12.97;80.55;100283.53;5043534;28;20075;-74
2022/03/08 08:53:35;;;;;;;3.73;1.33;;;;;;;13.35;80.83;100300.38;5040732;28;20049;-75
2022/03/08 08:56:02;;;;;;;3.67;1.23;;;;;;;13.63;80.33;100310.53;5040503;28;20515;-74
2022/03/08 08:58:29;;;;;;;9.03;1.03;;;;;;;13.58;79.97;100273.34;5042768;28;20102;-74
2022/03/08 09:00:56;;;;;;;12.97;1.60;;;;;;;13.90;79.47;100314.56;5038688;28;20045;-74
2022/03/08 09:03:24;;;;;;;1.23;0.97;;;;;;;14.10;79.34;100321.78;5046998;28;20069;-74
2022/03/08 09:05:51;;;;;;;3.60;1.50;;;;;;;14.78;79.49;100328.59;5046394;28;20412;-74
2022/03/08 09:08:24;;;;;;;6.77;1.63;;;;;;;15.03;78.92;100327.19;5042909;28;20153;-73
2022/03/08 09:10:55;;;;;;;3.13;1.60;;;;;;;15.03;78.34;100327.19;5028094;28;20057;-84
2022/03/08 09:13:23;;;;;;;4.23;1.60;;;;;;;14.86;78.71;100334.28;5044606;28;20052;-82
2022/03/08 09:15:50;;;;;;;3.43;1.00;;;;;;;14.71;78.37;100337.44;5054055;28;20530;-80
2022/03/08 09:18:18;;;;;;;3.20;1.33;;;;;;;14.46;77.77;100342.41;5060560;28;20048;-72
2022/03/08 09:20:45;;;;;;;7.27;1.83;;;;;;;14.30;77.83;100338.25;5076658;28;20045;-72
2022/03/08 09:23:12;;;;;;;3.13;1.30;;;;;;;13.88;77.19;100292.44;5075867;28;20052;-87
2022/03/08 09:25:40;;;;;;;11.47;2.33;;;;;;;14.22;76.97;100347.38;5059560;28;20037;-82
2022/03/08 09:28:07;;;;;;;2.30;1.93;;;;;;;14.30;75.85;100314.94;5060789;28;20049;-84
2022/03/08 09:30:35;;;;;;;5.97;1.40;;;;;;;14.56;75.21;100334.94;5053824;28;20115;-85
2022/03/08 09:33:03;;;;;;;2.53;1.70;;;;;;;14.64;74.62;100297.69;5051170;28;20087;-85
2022/03/08 09:35:30;;;;;;;5.00;3.13;;;;;;;15.43;74.04;100359.16;5053546;28;20049;-83
2022/03/08 09:37:57;;;;;;;8.30;1.70;;;;;;;15.15;73.93;100268.41;5036904;28;20419;-82
2022/03/08 09:40:24;;;;;;;16.57;2.30;;;;;;;15.76;73.95;100317.56;5052419;28;20412;-82
2022/03/08 09:42:52;;;;;;;4.57;1.50;;;;;;;16.25;74.55;100326.94;5053234;28;20451;-82
2022/03/08 09:45:19;;;;;;;8.00;2.13;;;;;;;16.51;74.75;100368.50;5044471;28;20084;-76
2022/03/08 09:47:46;;;;;;;5.83;2.07;;;;;;;15.73;75.35;100277.97;5049979;28;20071;-78
2022/03/08 09:50:14;;;;;;;7.40;1.95;;;;;;;16.15;75.76;100363.03;5050731;28;20053;-81
2022/03/08 09:52:46;;;;;;;2.50;1.45;;;;;;;16.24;75.92;100375.16;5032706;28;20053;-72
2022/03/08 09:55:15;;;;;;;7.35;1.50;;;;;;;16.65;74.44;100366.41;5046600;28;20096;-74
2022/03/08 09:57:43;;;;;;;10.82;1.85;;;;;;;17.28;74.15;100378.38;5042697;28;20107;-74
2022/03/08 10:00:11;;;;;;;6.15;1.65;;;;;;;17.50;73.92;100374.56;5046916;28;20488;-74
2022/03/08 10:02:46;;;;;;;7.03;1.50;;;;;;;17.33;73.40;100374.56;5048979;28;20087;-73
2022/03/08 10:05:13;;;;;;;3.83;1.63;;;;;;;17.17;73.67;100377.03;5044706;28;20057;-74
2022/03/08 10:08:01;;;;;;;4.95;1.30;;;;;;;17.28;73.96;100379.19;5043432;28;20061;-74
2022/03/08 10:10:32;;;;;;;7.00;2.00;;;;;;;17.11;73.11;100384.00;5042728;28;20091;-74
2022/03/08 10:13:00;;;;;;;4.32;1.60;;;;;;;16.72;73.32;100334.94;5061904;28;20160;-73
2022/03/08 10:15:26;;;;;;;2.83;1.30;;;;;;;16.45;73.37;100300.19;5061132;28;20033;-73
2022/03/08 10:17:53;;;;;;;6.95;1.38;;;;;;;17.16;72.83;100392.28;5071614;28;20052;-73
2022/03/08 10:20:31;;;;;;;12.35;2.05;;;;;;;17.17;73.22;100383.50;5072179;28;20068;-73
2022/03/08 10:22:59;;;;;;;5.43;1.65;;;;;;;17.18;72.27;100337.19;5068230;28;20033;-73
2022/03/08 10:25:30;;;;;;;6.63;2.55;;;;;;;17.58;72.48;100387.88;5076443;28;20051;-73
2022/03/08 10:27:58;;;;;;;3.95;1.77;;;;;;;17.87;71.71;100398.50;5069207;28;20033;-73
2022/03/08 10:30:42;;;;;;;7.80;1.92;;;;;;;17.94;71.21;100390.38;5062159;28;20400;-75
2022/03/08 10:33:19;;;;;;;5.47;1.75;;;;;;;17.87;70.95;100397.69;5069323;28;20051;-74
2022/03/08 10:35:56;;;;;;;6.50;1.38;;;;;;;17.16;71.73;100336.72;5080362;28;20029;-73
2022/03/08 10:38:22;;;;;;;7.78;1.73;;;;;;;17.38;70.93;100382.88;5077636;28;20088;-74
2022/03/08 10:40:49;;;;;;;7.22;1.60;;;;;;;17.41;70.97;100379.41;5056897;28;20563;-73
2022/03/08 10:43:17;;;;;;;2.08;1.10;;;;;;;17.55;71.13;100382.06;5049922;28;20056;-75
2022/03/08 10:45:50;;;;;;;11.25;1.77;;;;;;;17.65;71.11;100402.31;5046028;28;20496;-74
2022/03/08 10:48:18;;;;;;;6.93;1.52;;;;;;;16.99;71.19;100334.69;5049689;28;20473;-73
2022/03/08 10:50:50;;;;;;;9.73;1.25;;;;;;;17.11;70.92;100401.75;5054331;28;20048;-73
2022/03/08 10:53:23;;;;;;;9.20;8.30;;;;;;;16.62;71.64;100412.16;5051501;28;20053;-73
2022/03/08 10:55:50;;;;;;;10.02;8.75;;;;;;;16.27;72.06;100414.81;5057216;28;20079;-74
2022/03/08 10:58:19;;;;;;;10.40;9.45;;;;;;;15.94;71.56;100422.69;5050001;28;20546;-74
2022/03/08 11:00:51;;;;;;;10.88;9.77;;;;;;;15.25;71.31;100380.69;5051273;28;20103;-72
2022/03/08 11:03:21;;;;;;;12.30;11.13;;;;;;;15.16;71.60;100441.66;5053980;28;20056;-72
2022/03/08 11:05:59;;;;;;;17.88;16.52;;;;;;;14.64;72.65;100449.44;5049519;28;20052;-74
2022/03/08 11:08:28;;;;;;;16.67;15.33;;;;;;;14.25;73.19;100464.72;5049368;28;20049;-74
2022/03/08 11:10:56;;;;;;;20.17;17.33;;;;;;;13.99;73.49;100462.34;5051284;28;20045;-74
2022/03/08 11:13:24;;;;;;;19.03;17.37;;;;;;;13.85;74.09;100466.25;5054085;28;20476;-73
2022/03/08 11:15:51;;;;;;;19.43;17.40;;;;;;;13.79;74.62;100464.66;5048869;28;20107;-73
2022/03/08 11:18:18;;;;;;;17.60;15.50;;;;;;;13.45;75.27;100412.41;5048626;28;20049;-74
2022/03/08 11:20:46;;;;;;;18.10;14.60;;;;;;;13.66;75.56;100458.66;5050852;28;22355;-74
2022/03/08 11:23:14;;;;;;;15.73;14.10;;;;;;;13.51;75.55;100462.53;5050380;28;20072;-73
2022/03/08 11:25:44;;;;;;;17.13;15.80;;;;;;;13.28;76.13;100464.25;5048086;28;20053;-73
2022/03/08 11:28:24;;;;;;;18.03;16.40;;;;;;;13.25;76.45;100473.25;5051973;28;20049;-74
2022/03/08 11:30:56;;;;;;;22.80;21.10;;;;;;;13.20;77.44;100469.66;5031570;28;20087;-74